메인 페이지
METAR-TAF:

METAR-TAF

공항 :

아순시온, 파라과이

실비오 페티로시 국제공항

위도: 25-16S, 경도: 057-38W, 고도: 101m

현재 날씨관측

예보는 54분 전, 18:00시(UTC)에 발표되었습니다.
여러 방향의 바람 3kt
온도 30°C
습도 62%
기압 1011 hPa
시정 10km 이상
고도 3300ft 상공 구름 많음
고도 7000ft 상공 구름 많음

METAR: SGAS 161800Z VRB03KT 9999 BKN033 BKN070 30/22 Q1011

시각: 15:54 (18:54 UTC)

예보

예보는 3 시간 14분 전, 15:40시(UTC)에 발표되었습니다.
예보 대상 시간: 16일 18시부터 17일 18시까지 (UTC)
kt
시정 10km 이상
고도 3300ft 상공 구름 많음
고도 4000ft 상공 구름 조금, 타워링 적운.
확률 30%
16일 20시부터 16일 23시까지 (UTC)
시정: 7000m
고도 2700ft 상공 구름 많음
고도 4000ft 상공 구름 조금, 적란운.
전환 중
17일 02시부터 17일 06시까지 (UTC)
여러 방향의 바람 3kt
시정 10km 이상
1500m 미만 상공 구름 및 적란운 없음

TAF: SGAS 161540Z 1618/1718 00000KT 9999 BKN033 FEW040TCU TX32/1618Z TN23/1709Z PROB30 1620/1623 7000 TSSH BKN027 FEW040CB BECMG 1702/1706 VRB03KT CAVOK

4,000개 이상의 공항 관측 자료 및 예보 (METAR 및 TAF 보고).

지도상에서 검색 가능한 기상관측소가 노란 점과 빨간 점으로 표시되어 있습니다.

기상관측소 명을 보려면 표시 위로 마우스를 이동하세요.

날씨 관측과 예보를 보려면 클릭하세요.

지도 변경 : 확대하려면 엑스 표시가 있는 녹색 버튼, 축소하려면 빼기 표시가 있는 녹색 버튼, 다음 페이지의 지도를 보려면 녹색 화살표를 클릭하세요.


METAR-TAF: